» Metar & Tafor

24 November 2019
METAR
Pukul :
Isi :

METAR WAGI 220230Z 35003KT 9999 BKN010 29/25 Q1013 NOSIG=


10 Juni 2019
TAFOR
Pukul :
Isi :

TAF WAGI 212300Z 2200/2212 31006KT 9000 SCT012 TEMPO 2207/2209 18007KT 3000 RA BKN012=


Hal: << First | < Prev | 1 | Next > | Last >>